createdAt,value
2018-05-14T00:02:16.342Z,19.50
2018-05-14T00:04:47.377Z,19.53
2018-05-14T00:07:18.357Z,19.55
2018-05-14T00:09:49.375Z,19.52
2018-05-14T00:12:20.367Z,19.53
2018-05-14T00:14:51.363Z,19.60
2018-05-14T00:17:22.387Z,19.66
2018-05-14T00:19:53.366Z,19.72
2018-05-14T00:22:24.357Z,19.78
2018-05-14T00:24:55.323Z,19.82
2018-05-14T00:27:26.376Z,19.84
2018-05-14T00:29:57.396Z,19.82
2018-05-14T00:32:28.391Z,19.79
2018-05-14T00:34:59.369Z,19.79
2018-05-14T00:37:30.412Z,19.79
2018-05-14T00:40:01.412Z,19.80
2018-05-14T00:42:32.436Z,19.80
2018-05-14T00:45:03.436Z,19.79
2018-05-14T00:47:34.472Z,19.75
2018-05-14T00:50:05.480Z,19.73
2018-05-14T00:52:36.515Z,19.67
2018-05-14T00:55:13.771Z,19.63
2018-05-14T00:57:44.813Z,19.51
2018-05-14T01:00:15.799Z,19.46
2018-05-14T01:02:46.844Z,19.51
2018-05-14T01:05:17.811Z,19.52
2018-05-14T01:07:48.823Z,19.54
2018-05-14T01:10:19.829Z,19.56
2018-05-14T01:12:50.854Z,19.59
2018-05-14T01:15:21.822Z,19.63
2018-05-14T01:17:52.814Z,19.69
2018-05-14T01:20:23.787Z,19.75
2018-05-14T01:22:54.796Z,19.79
2018-05-14T01:25:25.791Z,19.84
2018-05-14T01:27:56.762Z,19.89
2018-05-14T01:30:27.808Z,19.91
2018-05-14T01:32:58.796Z,19.93
2018-05-14T01:35:29.840Z,19.96
2018-05-14T01:38:00.831Z,19.95
2018-05-14T01:40:31.848Z,19.94
2018-05-14T01:43:02.799Z,19.91
2018-05-14T01:45:33.810Z,19.84
2018-05-14T01:48:04.790Z,19.79
2018-05-14T01:50:35.775Z,19.78
2018-05-14T01:53:06.804Z,19.74
2018-05-14T01:55:37.814Z,19.74
2018-05-14T01:58:08.834Z,19.66
2018-05-14T02:00:39.808Z,19.67
2018-05-14T02:03:10.856Z,19.69
2018-05-14T02:05:41.930Z,19.70
2018-05-14T02:08:12.920Z,19.68
2018-05-14T02:10:43.944Z,19.70
2018-05-14T02:13:14.988Z,19.68
2018-05-14T02:15:45.982Z,19.58
2018-05-14T02:18:17.092Z,19.51
2018-05-14T02:20:48.053Z,19.43
2018-05-14T02:23:19.105Z,19.35
2018-05-14T02:25:50.078Z,19.28
2018-05-14T02:28:21.094Z,19.26
2018-05-14T02:30:52.094Z,19.23
2018-05-14T02:33:23.144Z,19.24
2018-05-14T02:35:54.132Z,19.25
2018-05-14T02:38:25.149Z,19.26
2018-05-14T02:40:56.138Z,19.26
2018-05-14T02:43:27.144Z,19.22
2018-05-14T02:45:58.115Z,19.19
2018-05-14T02:48:29.116Z,19.17
2018-05-14T02:51:00.086Z,19.20
2018-05-14T02:53:31.094Z,19.24
2018-05-14T02:56:02.050Z,19.24
2018-05-14T02:58:33.056Z,19.26
2018-05-14T03:01:04.149Z,19.25
2018-05-14T03:03:35.110Z,19.21
2018-05-14T03:06:06.133Z,19.17
2018-05-14T03:08:37.141Z,19.11
2018-05-14T03:11:08.090Z,19.11
2018-05-14T03:13:39.236Z,19.11
2018-05-14T03:16:10.225Z,19.12
2018-05-14T03:18:41.251Z,19.08
2018-05-14T03:21:12.254Z,19.09
2018-05-14T03:23:43.258Z,19.04
2018-05-14T03:26:14.230Z,19.06
2018-05-14T03:28:45.256Z,19.01
2018-05-14T03:31:16.232Z,18.95
2018-05-14T03:33:47.254Z,18.93
2018-05-14T03:36:18.246Z,18.97
2018-05-14T03:38:49.295Z,18.98
2018-05-14T03:41:20.277Z,18.98
2018-05-14T03:43:51.282Z,18.99
2018-05-14T03:46:22.291Z,18.96
2018-05-14T03:48:53.295Z,18.94
2018-05-14T03:51:24.336Z,18.94
2018-05-14T03:53:55.321Z,18.98
2018-05-14T03:56:26.376Z,19.00
2018-05-14T03:59:09.456Z,19.05
2018-05-14T04:01:52.666Z,19.07
2018-05-14T04:04:36.118Z,19.11
2018-05-14T04:07:07.109Z,19.16
2018-05-14T04:09:38.092Z,19.25
2018-05-14T04:12:09.096Z,19.41
2018-05-14T04:14:40.103Z,19.58
2018-05-14T04:17:11.938Z,19.78
2018-05-14T04:19:42.951Z,19.93
2018-05-14T04:22:13.916Z,20.03
2018-05-14T04:24:44.968Z,20.12
2018-05-14T04:27:15.962Z,20.16
2018-05-14T04:29:47.281Z,20.23
2018-05-14T04:32:18.273Z,20.35
2018-05-14T04:34:49.251Z,20.49
2018-05-14T04:37:20.214Z,20.64
2018-05-14T04:39:51.202Z,20.84
2018-05-14T04:42:22.172Z,21.05
2018-05-14T04:44:53.201Z,21.21
2018-05-14T04:47:24.203Z,21.42
2018-05-14T04:49:55.252Z,21.61
2018-05-14T04:52:26.273Z,21.70
2018-05-14T04:54:57.295Z,21.80
2018-05-14T04:57:28.293Z,21.85
2018-05-14T04:59:59.254Z,21.96
2018-05-14T05:02:30.262Z,22.06
2018-05-14T05:05:01.265Z,22.27
2018-05-14T05:07:32.250Z,22.50
2018-05-14T05:10:03.304Z,22.68
2018-05-14T05:12:34.317Z,22.79
2018-05-14T05:15:05.360Z,22.88
2018-05-14T05:17:36.356Z,23.02
2018-05-14T05:20:07.448Z,23.20
2018-05-14T05:22:39.283Z,23.37
2018-05-14T05:25:10.289Z,23.39
2018-05-14T05:27:41.344Z,23.33
2018-05-14T05:30:12.380Z,23.21
2018-05-14T05:32:43.393Z,23.17
2018-05-14T05:35:14.429Z,23.20
2018-05-14T05:37:45.547Z,23.14
2018-05-14T05:40:16.517Z,23.02
2018-05-14T05:42:47.543Z,22.98
2018-05-14T05:45:18.617Z,23.01
2018-05-14T05:47:49.586Z,23.06
2018-05-14T05:50:20.608Z,23.24
2018-05-14T05:52:51.598Z,23.32
2018-05-14T05:55:29.548Z,23.38
2018-05-14T05:58:00.536Z,23.53
2018-05-14T06:00:31.543Z,23.72
2018-05-14T06:03:02.579Z,24.13
2018-05-14T06:05:33.608Z,24.91
2018-05-14T06:10:42.687Z,26.88
2018-05-14T06:13:13.641Z,28.97
2018-05-14T06:15:44.642Z,31.93
2018-05-14T06:18:15.628Z,33.62
2018-05-14T06:20:46.650Z,33.94
2018-05-14T06:23:17.607Z,33.68
2018-05-14T06:25:48.651Z,33.83
2018-05-14T06:28:19.634Z,34.98
2018-05-14T06:30:50.620Z,35.32
2018-05-14T06:33:21.645Z,35.70
2018-05-14T06:35:52.630Z,36.41
2018-05-14T06:38:23.612Z,36.67
2018-05-14T06:40:54.655Z,37.57
2018-05-14T06:43:25.644Z,36.53
2018-05-14T06:45:56.698Z,35.12
2018-05-14T06:48:27.705Z,37.04
2018-05-14T06:50:58.747Z,40.70
2018-05-14T06:53:29.769Z,42.27
2018-05-14T06:56:00.764Z,45.09
2018-05-14T06:58:31.791Z,46.92
2018-05-14T07:01:02.816Z,44.84
2018-05-14T07:03:33.828Z,42.27
2018-05-14T07:06:04.835Z,41.92
2018-05-14T07:08:35.793Z,42.82
2018-05-14T07:11:06.810Z,41.31
2018-05-14T07:13:37.806Z,39.98
2018-05-14T07:16:08.837Z,38.68
2018-05-14T07:18:39.913Z,37.60
2018-05-14T07:21:10.915Z,37.09
2018-05-14T07:23:41.994Z,37.49
2018-05-14T07:26:12.992Z,39.52
2018-05-14T07:28:43.996Z,40.88
2018-05-14T07:31:14.961Z,40.71
2018-05-14T07:33:45.946Z,40.08
2018-05-14T07:36:16.954Z,39.14
2018-05-14T07:38:48.016Z,39.60
2018-05-14T07:41:19.001Z,38.69
2018-05-14T07:43:50.100Z,38.58
2018-05-14T07:46:21.031Z,37.96
2018-05-14T07:48:52.066Z,37.64
2018-05-14T07:51:23.120Z,37.04
2018-05-14T07:53:54.130Z,35.87
2018-05-14T07:56:25.133Z,34.82
2018-05-14T07:58:56.125Z,33.49
2018-05-14T08:01:27.165Z,32.22
2018-05-14T08:03:58.201Z,30.97
2018-05-14T08:06:29.213Z,30.02
2018-05-14T08:09:00.186Z,29.26
2018-05-14T08:11:31.171Z,28.84
2018-05-14T08:14:02.226Z,28.49
2018-05-14T08:16:33.259Z,28.21
2018-05-14T08:19:04.234Z,28.39
2018-05-14T08:21:35.265Z,28.73
2018-05-14T08:24:06.254Z,29.23
2018-05-14T08:26:37.272Z,29.56
2018-05-14T08:29:08.366Z,30.34
2018-05-14T08:31:39.280Z,30.92
2018-05-14T08:34:10.269Z,31.76
2018-05-14T08:36:41.249Z,32.50
2018-05-14T08:39:12.224Z,32.73
2018-05-14T08:41:43.214Z,32.32
2018-05-14T08:44:14.201Z,31.87
2018-05-14T08:46:45.182Z,31.79
2018-05-14T08:49:16.196Z,31.70
2018-05-14T08:51:47.187Z,31.16
2018-05-14T08:54:18.312Z,30.66
2018-05-14T08:56:49.203Z,30.35
2018-05-14T08:59:20.162Z,30.17
2018-05-14T09:01:51.153Z,29.96
2018-05-14T09:04:22.162Z,29.57
2018-05-14T09:06:53.163Z,29.63
2018-05-14T09:09:24.239Z,29.28
2018-05-14T09:11:55.258Z,28.57
2018-05-14T09:14:26.268Z,27.98
2018-05-14T09:16:57.278Z,27.80
2018-05-14T09:19:28.393Z,27.33
2018-05-14T09:21:59.263Z,27.06
2018-05-14T09:24:30.307Z,26.61
2018-05-14T09:27:01.260Z,26.79
2018-05-14T09:29:32.254Z,26.99
2018-05-14T09:32:03.304Z,26.95
2018-05-14T09:34:34.279Z,27.18
2018-05-14T09:37:05.269Z,27.78
2018-05-14T09:39:36.263Z,28.35
2018-05-14T09:42:07.277Z,28.54
2018-05-14T09:44:38.409Z,28.16
2018-05-14T09:47:09.298Z,28.26
2018-05-14T09:49:40.292Z,28.38
2018-05-14T09:52:11.281Z,28.92
2018-05-14T09:54:42.268Z,29.70
2018-05-14T09:57:13.316Z,30.15
2018-05-14T09:59:44.282Z,30.81
2018-05-14T10:02:15.266Z,31.07
2018-05-14T10:04:46.250Z,30.76
2018-05-14T10:07:17.255Z,30.43
2018-05-14T10:09:48.308Z,30.34
2018-05-14T10:12:19.330Z,29.87
2018-05-14T10:14:50.285Z,29.05
2018-05-14T10:17:21.302Z,28.36
2018-05-14T10:19:52.304Z,27.93
2018-05-14T10:22:23.360Z,27.29
2018-05-14T10:24:54.341Z,27.03
2018-05-14T10:27:25.356Z,27.20
2018-05-14T10:29:56.308Z,27.60
2018-05-14T10:32:27.360Z,28.17
2018-05-14T10:34:58.381Z,28.80
2018-05-14T10:37:29.327Z,29.42
2018-05-14T10:40:00.326Z,30.23
2018-05-14T10:42:31.279Z,30.71
2018-05-14T10:45:02.270Z,31.21
2018-05-14T10:47:33.312Z,32.07
2018-05-14T10:50:04.391Z,32.55
2018-05-14T10:52:42.498Z,33.00
2018-05-14T10:55:13.506Z,33.57
2018-05-14T10:57:44.567Z,33.23
2018-05-14T11:00:15.588Z,32.79
2018-05-14T11:02:46.600Z,31.97
2018-05-14T11:05:17.588Z,30.72
2018-05-14T11:07:48.586Z,29.58
2018-05-14T11:10:19.578Z,29.03
2018-05-14T11:12:50.588Z,28.77
2018-05-14T11:15:21.567Z,28.84
2018-05-14T11:17:52.558Z,28.65
2018-05-14T11:20:23.594Z,28.79
2018-05-14T11:22:54.665Z,29.21
2018-05-14T11:25:25.690Z,29.44
2018-05-14T11:27:56.755Z,29.46
2018-05-14T11:30:27.702Z,29.58
2018-05-14T11:32:58.744Z,29.94
2018-05-14T11:35:29.777Z,30.56
2018-05-14T11:38:00.682Z,31.30
2018-05-14T11:40:31.679Z,31.73
2018-05-14T11:43:02.630Z,31.98
2018-05-14T11:45:33.655Z,32.22
2018-05-14T11:48:04.645Z,32.22
2018-05-14T11:50:35.695Z,32.04
2018-05-14T11:53:06.705Z,32.20
2018-05-14T11:55:37.724Z,32.53
2018-05-14T11:58:08.702Z,32.61
2018-05-14T12:00:39.702Z,32.96
2018-05-14T12:03:10.813Z,32.87
2018-05-14T12:05:41.813Z,32.79
2018-05-14T12:08:12.830Z,32.76
2018-05-14T12:10:43.786Z,33.10
2018-05-14T12:13:14.796Z,33.25
2018-05-14T12:15:45.799Z,33.63
2018-05-14T12:18:16.814Z,33.88
2018-05-14T12:20:47.783Z,34.04
2018-05-14T12:23:18.776Z,34.19
2018-05-14T12:25:49.798Z,34.23
2018-05-14T12:28:20.813Z,34.22
2018-05-14T12:30:51.826Z,33.68
2018-05-14T12:33:22.828Z,33.47
2018-05-14T12:35:53.824Z,33.60
2018-05-14T12:38:24.796Z,33.69
2018-05-14T12:40:56.215Z,33.94
2018-05-14T12:43:27.213Z,34.03
2018-05-14T12:45:58.256Z,33.87
2018-05-14T12:48:29.271Z,33.67
2018-05-14T12:51:00.300Z,33.32
2018-05-14T12:53:31.309Z,32.99
2018-05-14T12:56:02.332Z,33.17
2018-05-14T12:58:33.324Z,33.45
2018-05-14T13:01:04.327Z,33.49
2018-05-14T13:03:35.403Z,33.42
2018-05-14T13:06:06.364Z,33.32
2018-05-14T13:08:37.397Z,33.43
2018-05-14T13:11:08.418Z,33.23
2018-05-14T13:13:39.410Z,32.67
2018-05-14T13:16:10.447Z,32.46
2018-05-14T13:18:41.418Z,32.55
2018-05-14T13:21:12.388Z,32.54
2018-05-14T13:23:43.386Z,32.56
2018-05-14T13:26:14.404Z,32.79
2018-05-14T13:28:48.383Z,32.86
2018-05-14T13:31:19.454Z,32.94
2018-05-14T13:33:50.444Z,32.70
2018-05-14T13:36:21.534Z,32.09
2018-05-14T13:38:52.506Z,31.64
2018-05-14T13:41:23.482Z,31.07
2018-05-14T13:43:54.451Z,30.88
2018-05-14T13:46:25.448Z,30.81
2018-05-14T13:48:56.474Z,30.72
2018-05-14T13:51:27.475Z,30.26
2018-05-14T13:53:58.494Z,30.03
2018-05-14T13:56:29.494Z,29.92
2018-05-14T13:59:00.516Z,29.78
2018-05-14T14:01:31.529Z,29.77
2018-05-14T14:04:02.536Z,29.85
2018-05-14T14:06:33.514Z,29.93
2018-05-14T14:09:04.530Z,29.94
2018-05-14T14:11:35.504Z,29.97
2018-05-14T14:14:06.577Z,30.10
2018-05-14T14:16:37.621Z,30.33
2018-05-14T14:19:08.579Z,30.44
2018-05-14T14:21:39.590Z,30.69
2018-05-14T14:24:10.615Z,30.92
2018-05-14T14:26:41.611Z,31.19
2018-05-14T14:29:12.633Z,31.23
2018-05-14T14:31:43.678Z,31.14
2018-05-14T14:34:14.753Z,31.32
2018-05-14T14:36:45.731Z,31.28
2018-05-14T14:39:16.753Z,31.08
2018-05-14T14:41:47.831Z,30.86
2018-05-14T14:44:18.796Z,30.12
2018-05-14T14:46:49.782Z,29.84
2018-05-14T14:49:20.816Z,29.52
2018-05-14T14:51:51.844Z,29.21
2018-05-14T14:54:22.872Z,28.92
2018-05-14T14:56:53.873Z,28.78
2018-05-14T14:59:24.890Z,28.54
2018-05-14T15:01:55.882Z,28.53
2018-05-14T15:04:26.909Z,28.40
2018-05-14T15:06:57.907Z,28.48
2018-05-14T15:09:28.942Z,28.60
2018-05-14T15:11:59.907Z,28.78
2018-05-14T15:14:30.929Z,28.47
2018-05-14T15:17:01.960Z,28.16
2018-05-14T15:19:32.957Z,28.26
2018-05-14T15:22:03.970Z,28.33
2018-05-14T15:24:34.949Z,28.43
2018-05-14T15:27:05.993Z,28.50
2018-05-14T15:29:36.976Z,28.36
2018-05-14T15:32:08.012Z,28.02
2018-05-14T15:34:39.025Z,27.95
2018-05-14T15:37:10.089Z,27.96
2018-05-14T15:39:41.069Z,27.94
2018-05-14T15:42:12.041Z,27.64
2018-05-14T15:44:43.012Z,27.43
2018-05-14T15:47:14.030Z,27.08
2018-05-14T15:49:45.319Z,27.16
2018-05-14T15:52:16.346Z,27.21
2018-05-14T15:54:47.380Z,27.05
2018-05-14T15:57:18.358Z,26.90
2018-05-14T15:59:49.363Z,26.53
2018-05-14T16:02:20.363Z,26.48
2018-05-14T16:07:24.487Z,25.91
2018-05-14T16:09:55.461Z,25.96
2018-05-14T16:12:26.518Z,25.93
2018-05-14T16:14:57.487Z,25.78
2018-05-14T16:17:28.578Z,25.69
2018-05-14T16:19:59.590Z,25.90
2018-05-14T16:22:30.588Z,26.10
2018-05-14T16:25:01.588Z,26.07
2018-05-14T16:27:32.588Z,25.95
2018-05-14T16:30:03.651Z,25.83
2018-05-14T16:32:34.665Z,25.80
2018-05-14T16:35:05.682Z,25.70
2018-05-14T16:37:36.716Z,25.73
2018-05-14T16:40:07.781Z,25.64
2018-05-14T16:42:38.741Z,25.58
2018-05-14T16:45:09.827Z,25.45
2018-05-14T16:47:40.869Z,25.44
2018-05-14T16:50:11.969Z,25.45
2018-05-14T16:52:42.959Z,25.30
2018-05-14T16:55:14.014Z,25.22
2018-05-14T16:57:45.086Z,25.08
2018-05-14T17:00:16.050Z,25.02
2018-05-14T17:02:47.034Z,24.92
2018-05-14T17:05:18.025Z,24.78
2018-05-14T17:07:49.052Z,24.62
2018-05-14T17:10:20.134Z,24.50
2018-05-14T17:12:51.118Z,24.41
2018-05-14T17:15:22.072Z,24.34
2018-05-14T17:17:53.070Z,24.35
2018-05-14T17:20:24.074Z,24.37
2018-05-14T17:22:55.066Z,24.28
2018-05-14T17:25:26.079Z,24.25
2018-05-14T17:27:57.140Z,24.26
2018-05-14T17:30:28.128Z,24.25
2018-05-14T17:32:59.138Z,24.30
2018-05-14T17:35:30.163Z,24.36
2018-05-14T17:38:01.197Z,24.23
2018-05-14T17:40:32.224Z,24.12
2018-05-14T17:43:03.276Z,24.10
2018-05-14T17:45:34.251Z,24.02
2018-05-14T17:48:05.264Z,23.91
2018-05-14T17:50:36.249Z,23.78
2018-05-14T17:53:07.276Z,23.68
2018-05-14T17:55:38.237Z,23.57
2018-05-14T17:58:09.235Z,23.53
2018-05-14T18:00:40.222Z,23.53
2018-05-14T18:03:11.239Z,23.45
2018-05-14T18:05:42.223Z,23.46
2018-05-14T18:08:13.303Z,23.44
2018-05-14T18:10:44.332Z,23.39
2018-05-14T18:13:15.408Z,23.38
2018-05-14T18:15:46.402Z,23.34
2018-05-14T18:18:17.425Z,23.24
2018-05-14T18:20:48.452Z,23.10
2018-05-14T18:23:23.244Z,22.95
2018-05-14T18:25:54.273Z,22.79
2018-05-14T18:28:31.426Z,22.68
2018-05-14T18:31:02.410Z,22.57
2018-05-14T18:33:33.393Z,22.54
2018-05-14T18:36:04.420Z,22.54
2018-05-14T18:38:35.424Z,22.56
2018-05-14T18:41:06.412Z,22.54
2018-05-14T18:43:37.463Z,22.48
2018-05-14T18:46:08.455Z,22.41
2018-05-14T18:48:39.492Z,22.32
2018-05-14T18:51:10.490Z,22.21
2018-05-14T18:53:41.515Z,22.01
2018-05-14T18:56:12.515Z,21.91
2018-05-14T18:58:43.525Z,21.85
2018-05-14T19:01:14.540Z,21.74
2018-05-14T19:03:45.573Z,21.62
2018-05-14T19:06:16.586Z,21.63
2018-05-14T19:08:47.655Z,21.60
2018-05-14T19:11:24.681Z,21.71
2018-05-14T19:13:55.698Z,21.75
2018-05-14T19:16:32.775Z,21.78
2018-05-14T19:19:04.050Z,21.83
2018-05-14T19:21:35.062Z,21.89
2018-05-14T19:24:06.090Z,21.89
2018-05-14T19:26:37.131Z,21.84
2018-05-14T19:29:14.063Z,21.82
2018-05-14T19:31:45.112Z,21.76
2018-05-14T19:34:22.236Z,21.76
2018-05-14T19:36:53.233Z,21.72
2018-05-14T19:39:30.451Z,21.65
2018-05-14T19:42:01.467Z,21.60
2018-05-14T19:44:32.484Z,21.56
2018-05-14T19:47:03.634Z,21.43
2018-05-14T19:49:34.621Z,21.39
2018-05-14T19:52:05.603Z,21.32
2018-05-14T19:54:36.580Z,21.23
2018-05-14T19:57:07.621Z,21.14
2018-05-14T19:59:38.563Z,21.03
2018-05-14T20:02:09.615Z,20.90
2018-05-14T20:04:40.593Z,20.75
2018-05-14T20:07:11.626Z,20.58
2018-05-14T20:09:42.628Z,20.46
2018-05-14T20:12:13.662Z,20.36
2018-05-14T20:14:44.685Z,20.31
2018-05-14T20:17:15.663Z,20.21
2018-05-14T20:19:46.682Z,20.15
2018-05-14T20:22:17.686Z,20.08
2018-05-14T20:24:48.745Z,20.02
2018-05-14T20:27:19.782Z,19.98
2018-05-14T20:29:50.998Z,19.96
2018-05-14T20:32:21.980Z,19.90
2018-05-14T20:34:53.025Z,19.88
2018-05-14T20:37:24.087Z,19.81
2018-05-14T20:39:55.196Z,19.76
2018-05-14T20:42:26.238Z,19.79
2018-05-14T20:44:57.221Z,19.75
2018-05-14T20:47:28.250Z,19.71
2018-05-14T20:49:59.218Z,19.65
2018-05-14T20:52:30.275Z,19.58
2018-05-14T20:55:01.288Z,19.59
2018-05-14T20:57:32.352Z,19.51
2018-05-14T21:00:03.392Z,19.56
2018-05-14T21:02:34.438Z,19.56
2018-05-14T21:05:05.475Z,19.47
2018-05-14T21:07:36.487Z,19.40
2018-05-14T21:10:07.524Z,19.35
2018-05-14T21:12:38.487Z,19.35
2018-05-14T21:15:09.540Z,19.28
2018-05-14T21:17:40.556Z,19.24
2018-05-14T21:20:18.848Z,19.16
2018-05-14T21:22:49.839Z,19.06
2018-05-14T21:25:20.850Z,19.02
2018-05-14T21:27:51.839Z,19.00
2018-05-14T21:30:22.830Z,18.91
2018-05-14T21:32:53.784Z,18.86
2018-05-14T21:35:24.843Z,18.83
2018-05-14T21:37:55.825Z,18.83
2018-05-14T21:40:26.866Z,18.76
2018-05-14T21:42:57.834Z,18.78
2018-05-14T21:45:28.860Z,18.67
2018-05-14T21:47:59.848Z,18.68
2018-05-14T21:50:30.870Z,18.67
2018-05-14T21:53:01.959Z,18.62
2018-05-14T21:55:32.927Z,18.56
2018-05-14T21:58:03.951Z,18.53
2018-05-14T22:00:34.962Z,18.46
2018-05-14T22:03:05.989Z,18.45
2018-05-14T22:05:49.067Z,18.44
2018-05-14T22:08:20.127Z,18.38
2018-05-14T22:10:51.139Z,18.35
2018-05-14T22:13:22.170Z,18.32
2018-05-14T22:15:53.137Z,18.19
2018-05-14T22:18:24.244Z,18.20
2018-05-14T22:20:55.152Z,18.16
2018-05-14T22:23:26.178Z,18.14
2018-05-14T22:25:57.178Z,18.19
2018-05-14T22:28:28.189Z,18.15
2018-05-14T22:30:59.178Z,18.15
2018-05-14T22:33:30.183Z,18.14
2018-05-14T22:36:01.218Z,18.06
2018-05-14T22:38:32.276Z,17.93
2018-05-14T22:41:03.243Z,17.93
2018-05-14T22:43:34.225Z,17.98
2018-05-14T22:46:05.253Z,17.98
2018-05-14T22:48:36.266Z,17.92
2018-05-14T22:51:07.248Z,17.93
2018-05-14T22:53:38.304Z,17.87
2018-05-14T22:56:09.306Z,17.81
2018-05-14T22:58:40.303Z,17.79
2018-05-14T23:01:11.307Z,17.75
2018-05-14T23:03:42.288Z,17.77
2018-05-14T23:06:13.278Z,17.77
2018-05-14T23:08:44.304Z,17.73
2018-05-14T23:11:15.300Z,17.72
2018-05-14T23:13:46.323Z,17.69
2018-05-14T23:16:17.308Z,17.61
2018-05-14T23:18:48.309Z,17.57
2018-05-14T23:21:19.293Z,17.60
2018-05-14T23:23:50.313Z,17.56
2018-05-14T23:26:21.293Z,17.53
2018-05-14T23:28:52.284Z,17.57
2018-05-14T23:31:23.252Z,17.51
2018-05-14T23:33:54.280Z,17.42
2018-05-14T23:36:25.246Z,17.32
2018-05-14T23:38:56.257Z,17.21
2018-05-14T23:41:27.237Z,17.24
2018-05-14T23:43:58.204Z,17.25
2018-05-14T23:46:29.244Z,17.23
2018-05-14T23:49:00.213Z,17.20
2018-05-14T23:51:31.220Z,17.24
2018-05-14T23:54:02.283Z,17.23
2018-05-14T23:56:33.338Z,17.27
2018-05-14T23:59:04.346Z,17.17
